createdAt,value
2017-07-16T00:01:06.234Z,0
2017-07-16T00:02:14.322Z,0
2017-07-16T00:03:22.410Z,0
2017-07-16T00:04:30.498Z,0
2017-07-16T00:05:38.586Z,0
2017-07-16T00:06:46.673Z,0
2017-07-16T00:07:54.757Z,0
2017-07-16T00:09:02.846Z,0
2017-07-16T00:10:10.934Z,0
2017-07-16T00:11:19.019Z,0
2017-07-16T00:12:27.106Z,0
2017-07-16T00:13:35.215Z,0
2017-07-16T00:14:43.287Z,0
2017-07-16T00:15:51.366Z,0
2017-07-16T00:16:59.454Z,0
2017-07-16T00:18:07.540Z,0
2017-07-16T00:19:15.628Z,0
2017-07-16T00:20:23.714Z,0
2017-07-16T00:21:31.885Z,0
2017-07-16T00:22:39.884Z,0
2017-07-16T00:23:47.972Z,0
2017-07-16T00:24:56.061Z,0
2017-07-16T00:26:04.147Z,0
2017-07-16T00:27:12.235Z,0
2017-07-16T00:28:20.319Z,0
2017-07-16T00:29:28.411Z,0
2017-07-16T00:30:36.497Z,0
2017-07-16T00:31:44.583Z,0
2017-07-16T00:32:52.671Z,0
2017-07-16T00:34:00.759Z,0
2017-07-16T00:35:08.845Z,0
2017-07-16T00:36:16.933Z,0
2017-07-16T00:37:25.021Z,0
2017-07-16T00:38:33.161Z,0
2017-07-16T00:39:41.194Z,0
2017-07-16T00:40:49.282Z,0
2017-07-16T00:41:57.364Z,0
2017-07-16T00:43:05.479Z,0
2017-07-16T00:44:13.540Z,0
2017-07-16T00:45:21.625Z,0
2017-07-16T00:46:29.714Z,0
2017-07-16T00:47:37.800Z,0
2017-07-16T00:48:45.889Z,0
2017-07-16T00:49:53.974Z,0
2017-07-16T00:51:02.061Z,0
2017-07-16T00:52:10.146Z,0
2017-07-16T00:53:18.233Z,0
2017-07-16T00:54:26.319Z,0
2017-07-16T00:55:34.511Z,0
2017-07-16T00:56:42.493Z,0
2017-07-16T00:57:50.580Z,0
2017-07-16T00:58:58.670Z,0
2017-07-16T01:00:06.776Z,0
2017-07-16T01:01:14.842Z,0
2017-07-16T01:02:22.927Z,0
2017-07-16T01:03:31.012Z,0
2017-07-16T01:04:39.101Z,0
2017-07-16T01:05:47.188Z,0
2017-07-16T01:06:55.275Z,0
2017-07-16T01:08:03.362Z,0
2017-07-16T01:09:11.449Z,0
2017-07-16T01:10:19.575Z,0
2017-07-16T01:11:27.620Z,0
2017-07-16T01:12:35.788Z,0
2017-07-16T01:13:43.839Z,0
2017-07-16T01:14:51.886Z,0
2017-07-16T01:15:59.969Z,0
2017-07-16T01:17:08.056Z,0
2017-07-16T01:18:16.144Z,0
2017-07-16T01:19:24.230Z,0
2017-07-16T01:20:32.317Z,0
2017-07-16T01:21:40.401Z,0
2017-07-16T01:22:48.512Z,0
2017-07-16T01:23:56.575Z,0
2017-07-16T01:25:04.662Z,0
2017-07-16T01:26:12.748Z,0
2017-07-16T01:27:20.834Z,0
2017-07-16T01:28:28.921Z,0
2017-07-16T01:29:37.064Z,0
2017-07-16T01:30:45.099Z,0
2017-07-16T01:31:53.184Z,0
2017-07-16T01:33:01.271Z,0
2017-07-16T01:34:09.359Z,0
2017-07-16T01:35:17.446Z,0
2017-07-16T01:36:25.590Z,0
2017-07-16T01:37:33.677Z,0
2017-07-16T01:38:41.706Z,0
2017-07-16T01:39:49.791Z,0
2017-07-16T01:40:57.880Z,0
2017-07-16T01:42:05.965Z,0
2017-07-16T01:43:14.051Z,0
2017-07-16T01:44:22.139Z,0
2017-07-16T01:45:30.234Z,0
2017-07-16T01:46:38.368Z,0
2017-07-16T01:47:46.410Z,0
2017-07-16T01:48:54.496Z,0
2017-07-16T01:50:02.582Z,0
2017-07-16T01:51:10.688Z,0
2017-07-16T01:52:18.759Z,0
2017-07-16T01:53:26.845Z,0
2017-07-16T01:54:34.933Z,0
2017-07-16T01:55:43.017Z,0
2017-07-16T01:56:51.105Z,0
2017-07-16T01:57:59.190Z,0
2017-07-16T01:59:07.334Z,0
2017-07-16T02:00:15.367Z,0
2017-07-16T02:01:23.460Z,0
2017-07-16T02:02:31.538Z,0
2017-07-16T02:03:39.625Z,0
2017-07-16T02:04:47.713Z,0
2017-07-16T02:05:55.798Z,0
2017-07-16T02:07:03.883Z,0
2017-07-16T02:08:11.969Z,0
2017-07-16T02:09:20.057Z,0
2017-07-16T02:10:28.145Z,0
2017-07-16T02:11:36.230Z,0
2017-07-16T02:12:44.319Z,0
2017-07-16T02:13:52.405Z,0
2017-07-16T02:15:00.878Z,0
2017-07-16T02:16:08.578Z,0
2017-07-16T02:17:16.664Z,0
2017-07-16T02:18:24.753Z,0
2017-07-16T02:19:32.837Z,0
2017-07-16T02:20:40.926Z,0
2017-07-16T02:21:49.011Z,0
2017-07-16T02:22:57.098Z,0
2017-07-16T02:24:05.182Z,0
2017-07-16T02:25:13.295Z,0
2017-07-16T02:26:21.359Z,0
2017-07-16T02:27:29.445Z,0
2017-07-16T02:28:37.530Z,0
2017-07-16T02:29:45.616Z,0
2017-07-16T02:30:53.704Z,0
2017-07-16T02:32:01.790Z,0
2017-07-16T02:33:09.878Z,0
2017-07-16T02:34:17.964Z,0
2017-07-16T02:35:26.052Z,0
2017-07-16T02:36:34.140Z,0
2017-07-16T02:37:42.224Z,0
2017-07-16T02:38:50.310Z,0
2017-07-16T02:39:58.395Z,0
2017-07-16T02:41:06.488Z,0
2017-07-16T02:42:14.571Z,0
2017-07-16T02:43:22.658Z,0
2017-07-16T02:44:30.745Z,0
2017-07-16T02:45:38.834Z,0
2017-07-16T02:46:46.916Z,0
2017-07-16T02:47:55.005Z,0
2017-07-16T02:49:03.090Z,0
2017-07-16T02:50:11.180Z,0
2017-07-16T02:51:19.268Z,0
2017-07-16T02:52:27.352Z,0
2017-07-16T02:53:35.463Z,0
2017-07-16T02:54:43.527Z,0
2017-07-16T02:55:51.613Z,0
2017-07-16T02:56:59.722Z,0
2017-07-16T02:58:07.785Z,0
2017-07-16T02:59:15.872Z,0
2017-07-16T03:00:23.959Z,0
2017-07-16T03:01:32.046Z,0
2017-07-16T03:02:40.135Z,0
2017-07-16T03:03:48.221Z,0
2017-07-16T03:04:56.308Z,0
2017-07-16T03:06:04.395Z,0
2017-07-16T03:07:12.481Z,0
2017-07-16T03:08:20.568Z,0
2017-07-16T03:09:28.655Z,0
2017-07-16T03:10:36.743Z,0
2017-07-16T03:11:44.829Z,0
2017-07-16T03:12:52.916Z,0
2017-07-16T03:14:01.001Z,0
2017-07-16T03:15:09.088Z,0
2017-07-16T03:16:17.173Z,0
2017-07-16T03:17:25.261Z,0
2017-07-16T03:18:33.374Z,0
2017-07-16T03:19:41.457Z,0
2017-07-16T03:20:49.520Z,0
2017-07-16T03:21:57.605Z,0
2017-07-16T03:23:05.702Z,0
2017-07-16T03:24:13.781Z,0
2017-07-16T03:25:21.906Z,0
2017-07-16T03:26:29.953Z,0
2017-07-16T03:27:38.040Z,0
2017-07-16T03:28:46.125Z,0
2017-07-16T03:29:54.212Z,0
2017-07-16T03:31:02.298Z,0
2017-07-16T03:32:10.385Z,0
2017-07-16T03:33:18.473Z,0
2017-07-16T03:34:26.559Z,0
2017-07-16T03:35:34.645Z,0
2017-07-16T03:36:42.731Z,0
2017-07-16T03:37:50.819Z,0
2017-07-16T03:38:58.905Z,0
2017-07-16T03:40:06.992Z,0
2017-07-16T03:41:15.110Z,0
2017-07-16T03:42:23.165Z,0
2017-07-16T03:43:31.260Z,0
2017-07-16T03:44:39.337Z,0
2017-07-16T03:45:47.425Z,0
2017-07-16T03:46:55.509Z,0
2017-07-16T03:48:03.595Z,0
2017-07-16T03:49:11.684Z,0
2017-07-16T03:50:19.770Z,0
2017-07-16T03:51:27.857Z,0
2017-07-16T03:52:35.949Z,0
2017-07-16T03:53:44.035Z,0
2017-07-16T03:54:52.121Z,0
2017-07-16T03:56:00.208Z,4
2017-07-16T03:57:08.295Z,0
2017-07-16T03:58:16.383Z,0
2017-07-16T03:59:24.468Z,0
2017-07-16T04:00:32.556Z,4
2017-07-16T04:01:40.642Z,0
2017-07-16T04:02:48.777Z,0
2017-07-16T04:03:56.816Z,0
2017-07-16T04:05:04.906Z,0
2017-07-16T04:06:12.988Z,0
2017-07-16T04:07:21.083Z,4
2017-07-16T04:08:29.161Z,4
2017-07-16T04:09:37.256Z,4
2017-07-16T04:10:45.337Z,4
2017-07-16T04:11:53.423Z,0
2017-07-16T04:13:01.514Z,0
2017-07-16T04:14:09.612Z,4
2017-07-16T04:15:17.689Z,4
2017-07-16T04:16:25.773Z,4
2017-07-16T04:17:33.863Z,0
2017-07-16T04:18:41.949Z,0
2017-07-16T04:19:50.121Z,0
2017-07-16T04:20:58.124Z,0
2017-07-16T04:22:06.329Z,4
2017-07-16T04:23:14.319Z,4
2017-07-16T04:24:22.381Z,4
2017-07-16T04:25:30.467Z,4
2017-07-16T04:26:38.555Z,4
2017-07-16T04:27:46.641Z,4
2017-07-16T04:28:54.727Z,4
2017-07-16T04:30:02.813Z,4
2017-07-16T04:31:10.899Z,4
2017-07-16T04:32:18.986Z,4
2017-07-16T04:33:27.074Z,4
2017-07-16T04:34:35.159Z,4
2017-07-16T04:35:43.249Z,4
2017-07-16T04:36:51.456Z,4
2017-07-16T04:37:59.422Z,4
2017-07-16T04:39:07.511Z,4
2017-07-16T04:40:15.596Z,8
2017-07-16T04:41:23.679Z,4
2017-07-16T04:42:31.766Z,4
2017-07-16T04:43:39.855Z,8
2017-07-16T04:44:47.940Z,8
2017-07-16T04:45:56.027Z,4
2017-07-16T04:47:04.121Z,8
2017-07-16T04:48:12.265Z,4
2017-07-16T04:49:20.292Z,8
2017-07-16T04:50:28.376Z,4
2017-07-16T04:51:36.470Z,8
2017-07-16T04:52:44.560Z,8
2017-07-16T04:53:52.642Z,8
2017-07-16T04:55:00.730Z,8
2017-07-16T04:56:08.820Z,8
2017-07-16T04:57:16.904Z,8
2017-07-16T04:58:24.989Z,12
2017-07-16T04:59:33.077Z,8
2017-07-16T05:00:41.163Z,8
2017-07-16T05:01:49.252Z,12
2017-07-16T05:02:57.344Z,12
2017-07-16T05:04:05.425Z,12
2017-07-16T05:05:13.510Z,12
2017-07-16T05:06:21.622Z,12
2017-07-16T05:07:29.685Z,12
2017-07-16T05:08:37.769Z,12
2017-07-16T05:09:45.856Z,8
2017-07-16T05:10:54.034Z,12
2017-07-16T05:12:02.028Z,12
2017-07-16T05:13:10.117Z,12
2017-07-16T05:14:18.205Z,12
2017-07-16T05:15:26.290Z,16
2017-07-16T05:16:34.376Z,16
2017-07-16T05:17:42.463Z,12
2017-07-16T05:18:50.547Z,12
2017-07-16T05:19:58.633Z,16
2017-07-16T05:21:06.727Z,12
2017-07-16T05:22:14.814Z,16
2017-07-16T05:23:22.898Z,16
2017-07-16T05:24:31.011Z,12
2017-07-16T05:25:39.073Z,12
2017-07-16T05:26:47.157Z,16
2017-07-16T05:27:55.300Z,16
2017-07-16T05:29:03.331Z,16
2017-07-16T05:30:11.420Z,12
2017-07-16T05:31:19.512Z,16
2017-07-16T05:32:27.598Z,16
2017-07-16T05:33:35.685Z,12
2017-07-16T05:34:43.773Z,20
2017-07-16T05:35:51.859Z,16
2017-07-16T05:36:59.946Z,16
2017-07-16T05:38:08.033Z,16
2017-07-16T05:39:16.118Z,16
2017-07-16T05:40:24.205Z,16
2017-07-16T05:41:32.293Z,16
2017-07-16T05:42:40.378Z,16
2017-07-16T05:43:48.464Z,16
2017-07-16T05:44:56.643Z,16
2017-07-16T05:46:04.637Z,16
2017-07-16T05:47:12.723Z,16
2017-07-16T05:48:20.809Z,12
2017-07-16T05:49:28.896Z,16
2017-07-16T05:50:36.983Z,16
2017-07-16T05:51:45.070Z,16
2017-07-16T05:52:53.157Z,12
2017-07-16T05:54:01.243Z,12
2017-07-16T05:55:09.328Z,12
2017-07-16T05:56:17.414Z,12
2017-07-16T05:57:25.500Z,12
2017-07-16T05:58:33.586Z,12
2017-07-16T05:59:41.674Z,12
2017-07-16T06:00:49.761Z,12
2017-07-16T06:01:57.941Z,12
2017-07-16T06:03:05.933Z,12
2017-07-16T06:04:14.020Z,12
2017-07-16T06:05:22.105Z,12
2017-07-16T06:06:30.229Z,16
2017-07-16T06:07:38.277Z,16
2017-07-16T06:08:46.365Z,16
2017-07-16T06:09:54.451Z,16
2017-07-16T06:11:02.536Z,16
2017-07-16T06:12:10.623Z,16
2017-07-16T06:13:18.709Z,24
2017-07-16T06:14:26.803Z,24
2017-07-16T06:15:34.891Z,20
2017-07-16T06:16:42.975Z,20
2017-07-16T06:17:51.062Z,20
2017-07-16T06:18:59.150Z,20
2017-07-16T06:20:07.234Z,20
2017-07-16T06:21:15.323Z,20
2017-07-16T06:22:23.409Z,20
2017-07-16T06:23:31.494Z,20
2017-07-16T06:24:39.580Z,24
2017-07-16T06:25:47.788Z,20
2017-07-16T06:26:55.752Z,20
2017-07-16T06:28:03.841Z,24
2017-07-16T06:29:11.927Z,24
2017-07-16T06:30:20.013Z,24
2017-07-16T06:31:28.105Z,24
2017-07-16T06:32:36.193Z,24
2017-07-16T06:33:44.277Z,20
2017-07-16T06:34:52.364Z,24
2017-07-16T06:36:00.541Z,24
2017-07-16T06:37:08.545Z,24
2017-07-16T06:38:16.632Z,24
2017-07-16T06:39:24.718Z,28
2017-07-16T06:40:32.804Z,24
2017-07-16T06:41:40.889Z,28
2017-07-16T06:42:48.977Z,28
2017-07-16T06:43:57.062Z,28
2017-07-16T06:45:05.148Z,28
2017-07-16T06:46:13.357Z,28
2017-07-16T06:47:21.322Z,28
2017-07-16T06:48:29.418Z,28
2017-07-16T06:49:37.497Z,24
2017-07-16T06:50:45.583Z,28
2017-07-16T06:51:53.669Z,28
2017-07-16T06:53:01.835Z,32
2017-07-16T06:54:09.849Z,36
2017-07-16T06:55:17.937Z,28
2017-07-16T06:56:26.023Z,28
2017-07-16T06:57:34.108Z,28
2017-07-16T06:58:42.206Z,40
2017-07-16T06:59:50.282Z,32
2017-07-16T07:00:58.376Z,28
2017-07-16T07:02:06.462Z,24
2017-07-16T07:03:15.034Z,28
2017-07-16T07:04:22.636Z,28
2017-07-16T07:05:30.873Z,24
2017-07-16T07:06:38.818Z,28
2017-07-16T07:07:46.904Z,28
2017-07-16T07:08:54.991Z,24
2017-07-16T07:10:03.077Z,24
2017-07-16T07:11:11.166Z,28
2017-07-16T07:12:19.261Z,28
2017-07-16T07:13:27.337Z,24
2017-07-16T07:14:35.445Z,24
2017-07-16T07:15:43.511Z,24
2017-07-16T07:16:51.601Z,24
2017-07-16T07:17:59.684Z,24
2017-07-16T07:19:07.769Z,24
2017-07-16T07:20:15.858Z,20
2017-07-16T07:21:23.946Z,20
2017-07-16T07:22:32.030Z,20
2017-07-16T07:23:40.117Z,24
2017-07-16T07:24:48.208Z,32
2017-07-16T07:25:56.293Z,52
2017-07-16T07:27:04.378Z,40
2017-07-16T07:28:12.464Z,44
2017-07-16T07:29:20.550Z,44
2017-07-16T07:30:28.638Z,36
2017-07-16T07:31:36.724Z,40
2017-07-16T07:32:44.812Z,40
2017-07-16T07:33:52.905Z,64
2017-07-16T07:35:00.994Z,56
2017-07-16T07:36:09.072Z,56
2017-07-16T07:37:17.182Z,52
2017-07-16T07:38:25.270Z,60
2017-07-16T07:39:33.332Z,56
2017-07-16T07:40:41.424Z,56
2017-07-16T07:41:49.511Z,56
2017-07-16T07:42:57.600Z,56
2017-07-16T07:44:05.687Z,56
2017-07-16T07:45:13.773Z,56
2017-07-16T07:46:21.860Z,56
2017-07-16T07:47:29.949Z,56
2017-07-16T07:48:38.033Z,56
2017-07-16T07:49:46.121Z,60
2017-07-16T07:50:54.209Z,60
2017-07-16T07:52:02.303Z,60
2017-07-16T07:53:10.388Z,60
2017-07-16T07:54:18.473Z,60
2017-07-16T07:55:26.565Z,60
2017-07-16T07:56:34.657Z,56
2017-07-16T07:57:42.735Z,56
2017-07-16T07:58:50.822Z,56
2017-07-16T07:59:58.915Z,44
2017-07-16T08:01:07.010Z,32
2017-07-16T08:02:15.096Z,40
2017-07-16T08:03:23.183Z,36
2017-07-16T08:04:31.296Z,28
2017-07-16T08:05:39.359Z,28
2017-07-16T08:06:47.446Z,44
2017-07-16T08:07:55.542Z,36
2017-07-16T08:09:03.620Z,28
2017-07-16T08:10:11.706Z,32
2017-07-16T08:11:19.794Z,52
2017-07-16T08:12:27.881Z,32
2017-07-16T08:13:35.967Z,32
2017-07-16T08:14:44.053Z,44
2017-07-16T08:15:52.140Z,36
2017-07-16T08:17:00.228Z,44
2017-07-16T08:18:08.316Z,60
2017-07-16T08:19:16.402Z,60
2017-07-16T08:20:24.514Z,52
2017-07-16T08:21:32.573Z,52
2017-07-16T08:22:40.661Z,60
2017-07-16T08:23:48.749Z,48
2017-07-16T08:24:56.835Z,32
2017-07-16T08:26:04.924Z,32
2017-07-16T08:27:13.009Z,40
2017-07-16T08:28:21.098Z,44
2017-07-16T08:29:29.184Z,36
2017-07-16T08:30:37.294Z,36
2017-07-16T08:31:45.356Z,36
2017-07-16T08:32:53.448Z,48
2017-07-16T08:34:01.532Z,36
2017-07-16T08:35:09.619Z,28
2017-07-16T08:36:17.708Z,32
2017-07-16T08:37:25.794Z,32
2017-07-16T08:38:33.882Z,32
2017-07-16T08:39:41.967Z,36
2017-07-16T08:40:50.053Z,52
2017-07-16T08:41:58.139Z,56
2017-07-16T08:43:06.254Z,52
2017-07-16T08:44:14.318Z,52
2017-07-16T08:45:22.404Z,52
2017-07-16T08:46:30.522Z,40
2017-07-16T08:47:38.579Z,44
2017-07-16T08:48:46.666Z,52
2017-07-16T08:49:54.777Z,44
2017-07-16T08:51:02.844Z,40
2017-07-16T08:52:10.930Z,44
2017-07-16T08:53:19.017Z,48
2017-07-16T08:54:27.104Z,56
2017-07-16T08:55:35.192Z,44
2017-07-16T08:56:43.281Z,40
2017-07-16T08:57:51.392Z,48
2017-07-16T08:58:59.453Z,48
2017-07-16T09:00:07.539Z,44
2017-07-16T09:01:15.651Z,40
2017-07-16T09:02:23.713Z,44
2017-07-16T09:03:31.803Z,48
2017-07-16T09:04:39.889Z,40
2017-07-16T09:05:47.975Z,48
2017-07-16T09:06:56.063Z,48
2017-07-16T09:08:04.150Z,44
2017-07-16T09:09:12.239Z,40
2017-07-16T09:10:20.325Z,40
2017-07-16T09:11:28.413Z,44
2017-07-16T09:12:36.499Z,44
2017-07-16T09:13:44.588Z,44
2017-07-16T09:14:52.674Z,60
2017-07-16T09:16:00.761Z,56
2017-07-16T09:17:08.850Z,48
2017-07-16T09:18:16.935Z,64
2017-07-16T09:19:25.022Z,48
2017-07-16T09:20:33.110Z,36
2017-07-16T09:21:41.197Z,36
2017-07-16T09:22:49.282Z,36
2017-07-16T09:23:57.371Z,36
2017-07-16T09:25:05.458Z,32
2017-07-16T09:26:13.546Z,36
2017-07-16T09:27:21.634Z,36
2017-07-16T09:28:29.719Z,40
2017-07-16T09:29:37.814Z,40
2017-07-16T09:30:45.900Z,36
2017-07-16T09:31:53.987Z,36
2017-07-16T09:33:02.075Z,36
2017-07-16T09:34:10.163Z,48
2017-07-16T09:35:18.251Z,40
2017-07-16T09:36:26.338Z,48
2017-07-16T09:37:34.425Z,36
2017-07-16T09:38:42.510Z,44
2017-07-16T09:39:50.597Z,52
2017-07-16T09:40:58.686Z,40
2017-07-16T09:42:06.772Z,40
2017-07-16T09:43:14.861Z,36
2017-07-16T09:44:22.948Z,60
2017-07-16T09:45:31.037Z,52
2017-07-16T09:46:39.123Z,48
2017-07-16T09:47:47.231Z,40
2017-07-16T09:48:55.297Z,44
2017-07-16T09:50:03.383Z,44
2017-07-16T09:51:11.496Z,52
2017-07-16T09:52:19.560Z,44
2017-07-16T09:53:27.647Z,44
2017-07-16T09:54:35.734Z,40
2017-07-16T09:55:43.850Z,48
2017-07-16T09:56:51.908Z,52
2017-07-16T09:57:59.996Z,48
2017-07-16T09:59:08.082Z,40
2017-07-16T10:00:16.169Z,48
2017-07-16T10:01:24.258Z,44
2017-07-16T10:02:32.345Z,44
2017-07-16T10:03:40.437Z,36
2017-07-16T10:04:48.526Z,32
2017-07-16T10:05:56.612Z,32
2017-07-16T10:07:04.700Z,36
2017-07-16T10:08:12.789Z,36
2017-07-16T10:09:20.874Z,40
2017-07-16T10:10:28.961Z,36
2017-07-16T10:11:37.048Z,40
2017-07-16T10:12:45.139Z,40
2017-07-16T10:13:53.227Z,36
2017-07-16T10:15:01.313Z,36
2017-07-16T10:16:09.397Z,36
2017-07-16T10:17:17.510Z,32
2017-07-16T10:18:25.573Z,28
2017-07-16T10:19:33.660Z,32
2017-07-16T10:20:41.749Z,32
2017-07-16T10:21:49.837Z,32
2017-07-16T10:22:57.925Z,36
2017-07-16T10:24:06.019Z,44
2017-07-16T10:25:14.099Z,36
2017-07-16T10:26:22.185Z,40
2017-07-16T10:27:30.273Z,36
2017-07-16T10:28:38.481Z,44
2017-07-16T10:29:46.447Z,40
2017-07-16T10:30:54.535Z,44
2017-07-16T10:32:02.623Z,44
2017-07-16T10:33:10.710Z,40
2017-07-16T10:34:18.797Z,28
2017-07-16T10:35:26.882Z,24
2017-07-16T10:36:34.970Z,24
2017-07-16T10:37:43.058Z,36
2017-07-16T10:38:51.145Z,40
2017-07-16T10:39:59.233Z,36
2017-07-16T10:41:07.322Z,40
2017-07-16T10:42:15.409Z,40
2017-07-16T10:43:23.498Z,48
2017-07-16T10:44:31.585Z,40
2017-07-16T10:45:39.671Z,28
2017-07-16T10:46:47.759Z,28
2017-07-16T10:47:55.847Z,28
2017-07-16T10:49:03.936Z,44
2017-07-16T10:50:12.021Z,40
2017-07-16T10:51:20.111Z,48
2017-07-16T10:52:28.198Z,48
2017-07-16T10:53:36.287Z,48
2017-07-16T10:54:44.372Z,52
2017-07-16T10:55:52.458Z,48
2017-07-16T10:57:00.548Z,52
2017-07-16T10:58:08.634Z,48
2017-07-16T10:59:16.723Z,48
2017-07-16T11:00:24.810Z,52
2017-07-16T11:01:32.898Z,52
2017-07-16T11:02:40.986Z,52
2017-07-16T11:03:49.074Z,48
2017-07-16T11:04:57.159Z,48
2017-07-16T11:06:05.247Z,52
2017-07-16T11:07:13.358Z,44
2017-07-16T11:08:21.422Z,36
2017-07-16T11:09:29.509Z,52
2017-07-16T11:10:37.605Z,56
2017-07-16T11:11:45.686Z,52
2017-07-16T11:12:53.772Z,52
2017-07-16T11:14:01.859Z,52
2017-07-16T11:15:09.948Z,52
2017-07-16T11:16:18.035Z,52
2017-07-16T11:17:26.958Z,52
2017-07-16T11:18:34.209Z,52
2017-07-16T11:19:42.297Z,52
2017-07-16T11:20:50.409Z,48
2017-07-16T11:21:58.472Z,44
2017-07-16T11:23:06.560Z,24
2017-07-16T11:24:14.649Z,48
2017-07-16T11:25:22.760Z,48
2017-07-16T11:26:30.824Z,48
2017-07-16T11:27:38.910Z,44
2017-07-16T11:28:46.998Z,48
2017-07-16T11:29:55.086Z,44
2017-07-16T11:31:03.175Z,48
2017-07-16T11:32:11.263Z,44
2017-07-16T11:33:19.376Z,28
2017-07-16T11:34:27.438Z,28
2017-07-16T11:35:35.525Z,28
2017-07-16T11:36:43.612Z,28
2017-07-16T11:37:51.701Z,48
2017-07-16T11:38:59.788Z,24
2017-07-16T11:40:07.878Z,24
2017-07-16T11:41:15.968Z,20
2017-07-16T11:42:24.146Z,24
2017-07-16T11:43:32.142Z,24
2017-07-16T11:44:40.229Z,32
2017-07-16T11:45:48.317Z,32
2017-07-16T11:46:56.404Z,36
2017-07-16T11:48:04.492Z,28
2017-07-16T11:49:12.601Z,44
2017-07-16T11:50:20.673Z,44
2017-07-16T11:51:28.760Z,48
2017-07-16T11:52:36.849Z,48
2017-07-16T11:53:44.932Z,44
2017-07-16T11:54:53.024Z,40
2017-07-16T11:56:01.110Z,28
2017-07-16T11:57:09.199Z,24
2017-07-16T11:58:17.792Z,24
2017-07-16T11:59:25.468Z,40
2017-07-16T12:00:33.464Z,32
2017-07-16T12:01:41.551Z,36
2017-07-16T12:02:49.661Z,32
2017-07-16T12:03:57.724Z,44
2017-07-16T12:05:05.812Z,44
2017-07-16T12:06:13.897Z,44
2017-07-16T12:07:21.991Z,48
2017-07-16T12:08:30.077Z,44
2017-07-16T12:09:38.164Z,44
2017-07-16T12:10:46.251Z,40
2017-07-16T12:11:54.340Z,40
2017-07-16T12:13:02.426Z,40
2017-07-16T12:14:10.513Z,36
2017-07-16T12:15:18.610Z,44
2017-07-16T12:16:26.689Z,40
2017-07-16T12:17:34.777Z,40
2017-07-16T12:18:42.866Z,40
2017-07-16T12:19:50.953Z,40
2017-07-16T12:20:59.043Z,40
2017-07-16T12:22:07.139Z,28
2017-07-16T12:23:15.224Z,40
2017-07-16T12:24:23.304Z,40
2017-07-16T12:25:31.414Z,40
2017-07-16T12:26:39.489Z,40
2017-07-16T12:27:47.568Z,40
2017-07-16T12:28:55.656Z,40
2017-07-16T12:30:03.745Z,40
2017-07-16T12:31:11.836Z,36
2017-07-16T12:32:19.920Z,36
2017-07-16T12:33:28.007Z,36
2017-07-16T12:34:36.095Z,36
2017-07-16T12:35:44.185Z,20
2017-07-16T12:36:52.273Z,16
2017-07-16T12:38:00.361Z,20
2017-07-16T12:39:08.450Z,16
2017-07-16T12:40:16.539Z,28
2017-07-16T12:41:24.626Z,20
2017-07-16T12:42:32.714Z,36
2017-07-16T12:43:40.802Z,32
2017-07-16T12:44:48.891Z,16
2017-07-16T12:45:56.979Z,12
2017-07-16T12:47:05.067Z,20
2017-07-16T12:48:13.156Z,16
2017-07-16T12:49:21.253Z,16
2017-07-16T12:50:29.338Z,16
2017-07-16T12:51:37.425Z,16
2017-07-16T12:52:45.540Z,16
2017-07-16T12:53:53.606Z,20
2017-07-16T12:55:01.690Z,20
2017-07-16T12:56:09.780Z,16
2017-07-16T12:57:17.869Z,20
2017-07-16T12:58:25.958Z,16
2017-07-16T12:59:34.044Z,16
2017-07-16T13:00:42.131Z,16
2017-07-16T13:01:50.241Z,16
2017-07-16T13:02:58.310Z,20
2017-07-16T13:04:06.519Z,36
2017-07-16T13:05:14.485Z,36
2017-07-16T13:06:22.573Z,36
2017-07-16T13:07:30.662Z,28
2017-07-16T13:08:38.748Z,28
2017-07-16T13:09:46.835Z,32
2017-07-16T13:10:54.926Z,36
2017-07-16T13:12:03.013Z,32
2017-07-16T13:13:11.099Z,32
2017-07-16T13:14:19.194Z,32
2017-07-16T13:15:27.280Z,32
2017-07-16T13:16:35.366Z,32
2017-07-16T13:17:43.453Z,36
2017-07-16T13:18:51.542Z,32
2017-07-16T13:19:59.627Z,32
2017-07-16T13:21:07.715Z,24
2017-07-16T13:22:15.803Z,20
2017-07-16T13:23:23.892Z,16
2017-07-16T13:24:32.125Z,16
2017-07-16T13:25:40.073Z,16
2017-07-16T13:26:48.160Z,24
2017-07-16T13:27:56.271Z,28
2017-07-16T13:29:04.335Z,28
2017-07-16T13:30:12.447Z,28
2017-07-16T13:31:20.517Z,28
2017-07-16T13:32:28.599Z,28
2017-07-16T13:33:36.687Z,28
2017-07-16T13:34:44.775Z,28
2017-07-16T13:35:52.862Z,28
2017-07-16T13:37:00.947Z,32
2017-07-16T13:38:09.038Z,32
2017-07-16T13:39:17.630Z,28
2017-07-16T13:40:25.215Z,28
2017-07-16T13:41:33.302Z,20
2017-07-16T13:42:41.390Z,16
2017-07-16T13:43:49.493Z,16
2017-07-16T13:44:57.567Z,20
2017-07-16T13:46:05.670Z,20
2017-07-16T13:47:13.746Z,20
2017-07-16T13:48:21.840Z,20
2017-07-16T13:49:29.930Z,16
2017-07-16T13:50:38.019Z,16
2017-07-16T13:51:46.108Z,28
2017-07-16T13:52:54.196Z,24
2017-07-16T13:54:02.281Z,28
2017-07-16T13:55:10.370Z,28
2017-07-16T13:56:18.469Z,24
2017-07-16T13:57:26.555Z,28
2017-07-16T13:58:34.643Z,28
2017-07-16T13:59:42.730Z,36
2017-07-16T14:00:50.817Z,28
2017-07-16T14:01:58.907Z,32
2017-07-16T14:03:06.994Z,32
2017-07-16T14:04:15.082Z,32
2017-07-16T14:05:23.169Z,32
2017-07-16T14:06:31.257Z,28
2017-07-16T14:07:39.371Z,24
2017-07-16T14:08:47.435Z,28
2017-07-16T14:09:55.522Z,28
2017-07-16T14:11:03.610Z,20
2017-07-16T14:12:11.699Z,24
2017-07-16T14:13:19.791Z,32
2017-07-16T14:14:27.873Z,32
2017-07-16T14:15:36.026Z,24
2017-07-16T14:16:44.051Z,24
2017-07-16T14:17:52.147Z,24
2017-07-16T14:19:00.248Z,24
2017-07-16T14:20:08.317Z,24
2017-07-16T14:21:16.403Z,20
2017-07-16T14:22:24.493Z,24
2017-07-16T14:23:32.604Z,24
2017-07-16T14:24:40.668Z,24
2017-07-16T14:25:48.756Z,24
2017-07-16T14:26:56.845Z,24
2017-07-16T14:28:04.933Z,28
2017-07-16T14:29:13.022Z,28
2017-07-16T14:30:21.111Z,24
2017-07-16T14:31:29.198Z,24
2017-07-16T14:32:37.367Z,28
2017-07-16T14:33:45.374Z,28
2017-07-16T14:34:53.462Z,28
2017-07-16T14:36:01.550Z,16
2017-07-16T14:37:09.637Z,16
2017-07-16T14:38:17.725Z,12
2017-07-16T14:39:25.858Z,12
2017-07-16T14:40:33.903Z,20
2017-07-16T14:41:41.992Z,20
2017-07-16T14:42:50.078Z,20
2017-07-16T14:43:58.168Z,20
2017-07-16T14:45:06.255Z,20
2017-07-16T14:46:14.345Z,20
2017-07-16T14:47:22.456Z,20
2017-07-16T14:48:30.520Z,20
2017-07-16T14:49:38.667Z,20
2017-07-16T14:50:46.699Z,20
2017-07-16T14:51:54.786Z,20
2017-07-16T14:53:02.872Z,20
2017-07-16T14:54:10.985Z,20
2017-07-16T14:55:19.050Z,20
2017-07-16T14:56:27.137Z,20
2017-07-16T14:57:35.251Z,20
2017-07-16T14:58:43.322Z,20
2017-07-16T14:59:51.411Z,20
2017-07-16T15:00:59.496Z,20
2017-07-16T15:02:07.583Z,20
2017-07-16T15:03:15.672Z,20
2017-07-16T15:04:23.759Z,24
2017-07-16T15:05:31.850Z,24
2017-07-16T15:06:39.953Z,24
2017-07-16T15:07:48.025Z,20
2017-07-16T15:08:56.115Z,20
2017-07-16T15:10:04.201Z,12
2017-07-16T15:11:12.288Z,16
2017-07-16T15:12:20.403Z,8
2017-07-16T15:13:28.465Z,16
2017-07-16T15:14:36.559Z,16
2017-07-16T15:15:44.653Z,20
2017-07-16T15:16:52.741Z,16
2017-07-16T15:18:00.830Z,16
2017-07-16T15:19:08.916Z,16
2017-07-16T15:20:17.005Z,16
2017-07-16T15:21:25.093Z,20
2017-07-16T15:22:33.181Z,20
2017-07-16T15:23:41.269Z,20
2017-07-16T15:24:49.359Z,20
2017-07-16T15:25:57.447Z,20
2017-07-16T15:27:05.657Z,20
2017-07-16T15:28:13.647Z,20
2017-07-16T15:29:21.711Z,20
2017-07-16T15:30:29.799Z,20
2017-07-16T15:31:37.886Z,20
2017-07-16T15:32:45.975Z,20
2017-07-16T15:33:54.065Z,20
2017-07-16T15:35:02.158Z,12
2017-07-16T15:36:10.246Z,8
2017-07-16T15:37:18.335Z,8
2017-07-16T15:38:26.445Z,8
2017-07-16T15:39:34.568Z,8
2017-07-16T15:40:42.600Z,8
2017-07-16T15:41:50.688Z,8
2017-07-16T15:42:58.777Z,8
2017-07-16T15:44:06.864Z,8
2017-07-16T15:45:14.954Z,8
2017-07-16T15:46:23.040Z,8
2017-07-16T15:47:31.135Z,8
2017-07-16T15:48:39.218Z,20
2017-07-16T15:49:47.306Z,16
2017-07-16T15:50:55.398Z,16
2017-07-16T15:52:03.483Z,16
2017-07-16T15:53:11.572Z,20
2017-07-16T15:54:19.660Z,16
2017-07-16T15:55:27.746Z,20
2017-07-16T15:56:35.835Z,16
2017-07-16T15:57:43.922Z,20
2017-07-16T15:58:52.012Z,16
2017-07-16T16:00:00.102Z,20
2017-07-16T16:01:08.194Z,16
2017-07-16T16:02:16.279Z,16
2017-07-16T16:03:24.372Z,16
2017-07-16T16:04:32.462Z,12
2017-07-16T16:05:40.549Z,12
2017-07-16T16:06:48.634Z,8
2017-07-16T16:07:56.725Z,8
2017-07-16T16:09:04.814Z,8
2017-07-16T16:10:12.903Z,8
2017-07-16T16:11:20.991Z,8
2017-07-16T16:12:29.081Z,12
2017-07-16T16:13:37.167Z,8
2017-07-16T16:14:45.255Z,12
2017-07-16T16:15:53.344Z,8
2017-07-16T16:17:01.431Z,8
2017-07-16T16:18:09.522Z,12
2017-07-16T16:19:17.611Z,16
2017-07-16T16:20:25.707Z,20
2017-07-16T16:21:33.787Z,20
2017-07-16T16:22:41.875Z,20